sensor_id;sensor_type;location;lat;lon;timestamp;P1;durP1;ratioP1;P2;durP2;ratioP2
74080;SDS011;62438;52.228;6.864;2022-12-05T00:01:24;46.72;;;17.20;;
74080;SDS011;62438;52.228;6.864;2022-12-05T00:03:27;46.22;;;17.08;;
74080;SDS011;62438;52.228;6.864;2022-12-05T00:05:27;42.47;;;16.30;;
74080;SDS011;62438;52.228;6.864;2022-12-05T00:07:28;43.97;;;17.77;;
74080;SDS011;62438;52.228;6.864;2022-12-05T00:09:28;44.90;;;16.75;;
74080;SDS011;62438;52.228;6.864;2022-12-05T00:11:30;42.70;;;17.55;;
74080;SDS011;62438;52.228;6.864;2022-12-05T00:13:33;45.33;;;17.65;;
74080;SDS011;62438;52.228;6.864;2022-12-05T00:15:37;46.67;;;17.90;;
74080;SDS011;62438;52.228;6.864;2022-12-05T00:17:39;44.92;;;16.52;;
74080;SDS011;62438;52.228;6.864;2022-12-05T00:19:40;43.53;;;18.00;;
74080;SDS011;62438;52.228;6.864;2022-12-05T00:21:40;41.15;;;16.27;;
74080;SDS011;62438;52.228;6.864;2022-12-05T00:23:41;47.67;;;17.88;;
74080;SDS011;62438;52.228;6.864;2022-12-05T00:25:42;40.15;;;16.05;;
74080;SDS011;62438;52.228;6.864;2022-12-05T00:27:42;46.15;;;16.27;;
74080;SDS011;62438;52.228;6.864;2022-12-05T00:29:43;46.85;;;18.20;;
74080;SDS011;62438;52.228;6.864;2022-12-05T00:31:43;42.42;;;17.45;;
74080;SDS011;62438;52.228;6.864;2022-12-05T00:33:44;44.28;;;18.30;;
74080;SDS011;62438;52.228;6.864;2022-12-05T00:35:45;43.85;;;17.38;;
74080;SDS011;62438;52.228;6.864;2022-12-05T00:37:45;44.22;;;17.73;;
74080;SDS011;62438;52.228;6.864;2022-12-05T00:39:46;43.45;;;18.15;;
74080;SDS011;62438;52.228;6.864;2022-12-05T00:41:46;51.45;;;19.05;;
74080;SDS011;62438;52.228;6.864;2022-12-05T00:43:47;43.08;;;16.50;;
74080;SDS011;62438;52.228;6.864;2022-12-05T00:45:48;39.08;;;16.60;;
74080;SDS011;62438;52.228;6.864;2022-12-05T00:47:48;42.53;;;16.23;;
74080;SDS011;62438;52.228;6.864;2022-12-05T00:49:49;44.20;;;16.95;;
74080;SDS011;62438;52.228;6.864;2022-12-05T00:51:49;44.53;;;17.15;;
74080;SDS011;62438;52.228;6.864;2022-12-05T00:53:50;46.33;;;17.10;;
74080;SDS011;62438;52.228;6.864;2022-12-05T00:55:50;43.38;;;16.27;;
74080;SDS011;62438;52.228;6.864;2022-12-05T00:57:50;42.10;;;16.40;;
74080;SDS011;62438;52.228;6.864;2022-12-05T00:59:51;46.25;;;17.17;;
74080;SDS011;62438;52.228;6.864;2022-12-05T01:01:51;46.53;;;16.35;;
74080;SDS011;62438;52.228;6.864;2022-12-05T01:03:56;40.17;;;16.33;;
74080;SDS011;62438;52.228;6.864;2022-12-05T01:05:57;40.35;;;15.27;;
74080;SDS011;62438;52.228;6.864;2022-12-05T01:07:58;44.50;;;14.63;;
74080;SDS011;62438;52.228;6.864;2022-12-05T01:09:58;45.10;;;17.35;;
74080;SDS011;62438;52.228;6.864;2022-12-05T01:11:59;42.63;;;15.82;;
74080;SDS011;62438;52.228;6.864;2022-12-05T01:13:59;41.45;;;15.32;;
74080;SDS011;62438;52.228;6.864;2022-12-05T01:16:00;43.25;;;16.33;;
74080;SDS011;62438;52.228;6.864;2022-12-05T01:18:00;39.33;;;15.45;;
74080;SDS011;62438;52.228;6.864;2022-12-05T01:20:01;43.15;;;16.60;;
74080;SDS011;62438;52.228;6.864;2022-12-05T01:22:02;48.38;;;17.30;;
74080;SDS011;62438;52.228;6.864;2022-12-05T01:24:02;44.50;;;17.17;;
74080;SDS011;62438;52.228;6.864;2022-12-05T01:26:07;42.55;;;16.90;;
74080;SDS011;62438;52.228;6.864;2022-12-05T01:28:09;40.50;;;15.52;;
74080;SDS011;62438;52.228;6.864;2022-12-05T01:30:09;44.78;;;16.38;;
74080;SDS011;62438;52.228;6.864;2022-12-05T01:32:10;35.25;;;14.65;;
74080;SDS011;62438;52.228;6.864;2022-12-05T01:34:11;47.20;;;17.60;;
74080;SDS011;62438;52.228;6.864;2022-12-05T01:36:13;42.47;;;16.02;;
74080;SDS011;62438;52.228;6.864;2022-12-05T01:38:14;43.55;;;15.65;;
74080;SDS011;62438;52.228;6.864;2022-12-05T01:40:14;40.92;;;16.55;;
74080;SDS011;62438;52.228;6.864;2022-12-05T01:42:16;39.75;;;15.95;;
74080;SDS011;62438;52.228;6.864;2022-12-05T01:46:17;35.25;;;13.85;;
74080;SDS011;62438;52.228;6.864;2022-12-05T01:48:22;43.35;;;16.58;;
74080;SDS011;62438;52.228;6.864;2022-12-05T01:50:25;40.85;;;15.75;;
74080;SDS011;62438;52.228;6.864;2022-12-05T01:52:26;39.08;;;15.68;;
74080;SDS011;62438;52.228;6.864;2022-12-05T01:54:29;43.33;;;15.57;;
74080;SDS011;62438;52.228;6.864;2022-12-05T01:56:30;41.67;;;15.05;;
74080;SDS011;62438;52.228;6.864;2022-12-05T01:58:32;42.75;;;15.57;;
74080;SDS011;62438;52.228;6.864;2022-12-05T02:00:37;45.40;;;17.58;;
74080;SDS011;62438;52.228;6.864;2022-12-05T02:02:43;43.80;;;16.60;;
74080;SDS011;62438;52.228;6.864;2022-12-05T02:05:00;40.17;;;15.43;;
74080;SDS011;62438;52.228;6.864;2022-12-05T02:07:04;35.42;;;13.93;;
74080;SDS011;62438;52.228;6.864;2022-12-05T02:09:05;41.88;;;14.48;;
74080;SDS011;62438;52.228;6.864;2022-12-05T02:11:06;40.33;;;15.68;;
74080;SDS011;62438;52.228;6.864;2022-12-05T02:17:45;34.85;;;13.77;;
74080;SDS011;62438;52.228;6.864;2022-12-05T02:20:14;39.40;;;14.05;;
74080;SDS011;62438;52.228;6.864;2022-12-05T02:32:02;40.08;;;16.02;;
74080;SDS011;62438;52.228;6.864;2022-12-05T02:34:19;39.85;;;15.88;;
74080;SDS011;62438;52.228;6.864;2022-12-05T02:36:43;43.65;;;16.77;;
74080;SDS011;62438;52.228;6.864;2022-12-05T02:39:03;41.65;;;16.98;;
74080;SDS011;62438;52.228;6.864;2022-12-05T02:41:39;40.10;;;14.85;;
74080;SDS011;62438;52.228;6.864;2022-12-05T02:44:08;38.75;;;15.68;;
74080;SDS011;62438;52.228;6.864;2022-12-05T02:46:16;41.33;;;15.20;;
74080;SDS011;62438;52.228;6.864;2022-12-05T02:48:20;41.17;;;16.02;;
74080;SDS011;62438;52.228;6.864;2022-12-05T02:50:24;40.92;;;15.90;;
74080;SDS011;62438;52.228;6.864;2022-12-05T02:52:27;44.30;;;16.73;;
74080;SDS011;62438;52.228;6.864;2022-12-05T02:54:32;41.90;;;17.55;;
74080;SDS011;62438;52.228;6.864;2022-12-05T02:56:36;42.55;;;16.80;;
74080;SDS011;62438;52.228;6.864;2022-12-05T02:58:39;41.17;;;18.13;;
74080;SDS011;62438;52.228;6.864;2022-12-05T03:00:45;42.70;;;16.33;;
74080;SDS011;62438;52.228;6.864;2022-12-05T03:02:50;48.13;;;17.65;;
74080;SDS011;62438;52.228;6.864;2022-12-05T03:04:55;42.30;;;16.83;;
74080;SDS011;62438;52.228;6.864;2022-12-05T03:07:07;42.85;;;15.73;;
74080;SDS011;62438;52.228;6.864;2022-12-05T03:09:12;42.72;;;17.55;;
74080;SDS011;62438;52.228;6.864;2022-12-05T03:11:18;45.30;;;16.70;;
74080;SDS011;62438;52.228;6.864;2022-12-05T03:13:20;39.05;;;16.42;;
74080;SDS011;62438;52.228;6.864;2022-12-05T03:15:44;40.63;;;15.98;;
74080;SDS011;62438;52.228;6.864;2022-12-05T03:17:59;43.50;;;14.90;;
74080;SDS011;62438;52.228;6.864;2022-12-05T03:20:14;46.20;;;17.40;;
74080;SDS011;62438;52.228;6.864;2022-12-05T03:22:26;42.30;;;17.83;;
74080;SDS011;62438;52.228;6.864;2022-12-05T03:24:50;43.92;;;18.83;;
74080;SDS011;62438;52.228;6.864;2022-12-05T03:29:19;46.78;;;17.13;;
74080;SDS011;62438;52.228;6.864;2022-12-05T03:31:25;45.88;;;17.85;;
74080;SDS011;62438;52.228;6.864;2022-12-05T03:33:34;44.28;;;17.48;;
74080;SDS011;62438;52.228;6.864;2022-12-05T03:35:42;48.72;;;18.13;;
74080;SDS011;62438;52.228;6.864;2022-12-05T03:40:13;48.38;;;17.40;;
74080;SDS011;62438;52.228;6.864;2022-12-05T03:44:33;40.45;;;14.93;;
74080;SDS011;62438;52.228;6.864;2022-12-05T03:46:49;44.30;;;17.55;;
74080;SDS011;62438;52.228;6.864;2022-12-05T03:51:42;44.97;;;16.83;;
74080;SDS011;62438;52.228;6.864;2022-12-05T03:53:54;48.33;;;17.27;;
74080;SDS011;62438;52.228;6.864;2022-12-05T03:56:06;43.65;;;17.38;;
74080;SDS011;62438;52.228;6.864;2022-12-05T03:58:11;45.33;;;17.15;;
74080;SDS011;62438;52.228;6.864;2022-12-05T04:00:26;49.22;;;18.23;;
74080;SDS011;62438;52.228;6.864;2022-12-05T04:02:44;46.13;;;17.65;;
74080;SDS011;62438;52.228;6.864;2022-12-05T04:07:30;37.17;;;15.98;;
74080;SDS011;62438;52.228;6.864;2022-12-05T04:09:36;44.53;;;16.55;;
74080;SDS011;62438;52.228;6.864;2022-12-05T04:11:44;48.78;;;18.10;;
74080;SDS011;62438;52.228;6.864;2022-12-05T04:13:51;43.53;;;16.15;;
74080;SDS011;62438;52.228;6.864;2022-12-05T04:16:01;50.58;;;19.15;;
74080;SDS011;62438;52.228;6.864;2022-12-05T04:18:23;45.85;;;17.65;;
74080;SDS011;62438;52.228;6.864;2022-12-05T04:20:27;46.72;;;18.52;;
74080;SDS011;62438;52.228;6.864;2022-12-05T04:22:51;39.65;;;16.95;;
74080;SDS011;62438;52.228;6.864;2022-12-05T04:24:51;45.25;;;17.95;;
74080;SDS011;62438;52.228;6.864;2022-12-05T04:29:41;46.97;;;19.52;;
74080;SDS011;62438;52.228;6.864;2022-12-05T04:31:48;41.85;;;17.23;;
74080;SDS011;62438;52.228;6.864;2022-12-05T04:33:55;43.75;;;17.65;;
74080;SDS011;62438;52.228;6.864;2022-12-05T04:36:02;44.53;;;17.13;;
74080;SDS011;62438;52.228;6.864;2022-12-05T04:38:24;47.17;;;18.15;;
74080;SDS011;62438;52.228;6.864;2022-12-05T04:40:32;42.50;;;18.83;;
74080;SDS011;62438;52.228;6.864;2022-12-05T04:42:36;46.67;;;19.33;;
74080;SDS011;62438;52.228;6.864;2022-12-05T04:44:39;42.55;;;17.85;;
74080;SDS011;62438;52.228;6.864;2022-12-05T04:46:43;46.97;;;17.40;;
74080;SDS011;62438;52.228;6.864;2022-12-05T04:48:51;41.25;;;18.17;;
74080;SDS011;62438;52.228;6.864;2022-12-05T04:50:55;42.72;;;18.65;;
74080;SDS011;62438;52.228;6.864;2022-12-05T04:52:57;40.50;;;17.95;;
74080;SDS011;62438;52.228;6.864;2022-12-05T04:55:04;47.50;;;18.25;;
74080;SDS011;62438;52.228;6.864;2022-12-05T04:57:10;40.72;;;16.13;;
74080;SDS011;62438;52.228;6.864;2022-12-05T04:59:18;47.60;;;19.15;;
74080;SDS011;62438;52.228;6.864;2022-12-05T05:01:20;39.63;;;16.40;;
74080;SDS011;62438;52.228;6.864;2022-12-05T05:03:26;40.30;;;17.50;;
74080;SDS011;62438;52.228;6.864;2022-12-05T05:05:30;41.30;;;16.08;;
74080;SDS011;62438;52.228;6.864;2022-12-05T05:07:41;44.40;;;17.45;;
74080;SDS011;62438;52.228;6.864;2022-12-05T05:09:45;40.08;;;15.95;;
74080;SDS011;62438;52.228;6.864;2022-12-05T05:11:46;41.63;;;16.48;;
74080;SDS011;62438;52.228;6.864;2022-12-05T05:13:47;40.38;;;17.67;;
74080;SDS011;62438;52.228;6.864;2022-12-05T05:15:47;39.40;;;17.13;;
74080;SDS011;62438;52.228;6.864;2022-12-05T05:17:48;45.33;;;17.63;;
74080;SDS011;62438;52.228;6.864;2022-12-05T05:19:48;41.60;;;16.88;;
74080;SDS011;62438;52.228;6.864;2022-12-05T05:21:49;40.08;;;17.33;;
74080;SDS011;62438;52.228;6.864;2022-12-05T05:23:51;36.65;;;15.73;;
74080;SDS011;62438;52.228;6.864;2022-12-05T05:25:52;37.78;;;16.58;;
74080;SDS011;62438;52.228;6.864;2022-12-05T05:27:54;37.50;;;15.45;;
74080;SDS011;62438;52.228;6.864;2022-12-05T05:29:55;34.60;;;14.98;;
74080;SDS011;62438;52.228;6.864;2022-12-05T05:31:55;36.60;;;14.32;;
74080;SDS011;62438;52.228;6.864;2022-12-05T05:33:56;31.48;;;13.50;;
74080;SDS011;62438;52.228;6.864;2022-12-05T05:36:00;35.88;;;15.43;;
74080;SDS011;62438;52.228;6.864;2022-12-05T05:38:04;33.53;;;15.05;;
74080;SDS011;62438;52.228;6.864;2022-12-05T05:40:08;33.60;;;15.38;;
74080;SDS011;62438;52.228;6.864;2022-12-05T05:42:10;39.08;;;15.55;;
74080;SDS011;62438;52.228;6.864;2022-12-05T05:44:11;36.63;;;15.75;;
74080;SDS011;62438;52.228;6.864;2022-12-05T05:46:12;34.25;;;13.38;;
74080;SDS011;62438;52.228;6.864;2022-12-05T05:48:13;31.05;;;13.00;;
74080;SDS011;62438;52.228;6.864;2022-12-05T05:50:14;31.80;;;13.98;;
74080;SDS011;62438;52.228;6.864;2022-12-05T05:52:15;32.63;;;13.90;;
74080;SDS011;62438;52.228;6.864;2022-12-05T05:54:15;36.08;;;14.02;;
74080;SDS011;62438;52.228;6.864;2022-12-05T05:56:16;28.67;;;13.85;;
74080;SDS011;62438;52.228;6.864;2022-12-05T06:02:19;32.03;;;12.90;;
74080;SDS011;62438;52.228;6.864;2022-12-05T06:04:19;32.55;;;14.15;;
74080;SDS011;62438;52.228;6.864;2022-12-05T06:06:20;28.15;;;12.10;;
74080;SDS011;62438;52.228;6.864;2022-12-05T06:08:21;32.33;;;14.15;;
74080;SDS011;62438;52.228;6.864;2022-12-05T06:10:21;31.27;;;13.95;;
74080;SDS011;62438;52.228;6.864;2022-12-05T06:12:21;30.60;;;13.50;;
74080;SDS011;62438;52.228;6.864;2022-12-05T06:14:22;34.63;;;14.68;;
74080;SDS011;62438;52.228;6.864;2022-12-05T06:16:23;34.97;;;14.00;;
74080;SDS011;62438;52.228;6.864;2022-12-05T06:18:23;37.65;;;14.15;;
74080;SDS011;62438;52.228;6.864;2022-12-05T06:20:24;31.38;;;13.65;;
74080;SDS011;62438;52.228;6.864;2022-12-05T06:22:24;34.40;;;13.90;;
74080;SDS011;62438;52.228;6.864;2022-12-05T06:24:25;36.00;;;14.13;;
74080;SDS011;62438;52.228;6.864;2022-12-05T06:26:25;32.92;;;14.55;;
74080;SDS011;62438;52.228;6.864;2022-12-05T06:28:25;37.10;;;15.55;;
74080;SDS011;62438;52.228;6.864;2022-12-05T06:30:26;37.28;;;14.90;;
74080;SDS011;62438;52.228;6.864;2022-12-05T06:32:27;34.15;;;14.48;;
74080;SDS011;62438;52.228;6.864;2022-12-05T06:34:28;34.92;;;14.32;;
74080;SDS011;62438;52.228;6.864;2022-12-05T06:36:31;33.97;;;14.20;;
74080;SDS011;62438;52.228;6.864;2022-12-05T06:38:32;30.67;;;13.52;;
74080;SDS011;62438;52.228;6.864;2022-12-05T06:40:33;36.65;;;14.70;;
74080;SDS011;62438;52.228;6.864;2022-12-05T06:42:33;34.03;;;14.75;;
74080;SDS011;62438;52.228;6.864;2022-12-05T06:44:34;34.28;;;15.00;;
74080;SDS011;62438;52.228;6.864;2022-12-05T06:46:34;35.70;;;14.30;;
74080;SDS011;62438;52.228;6.864;2022-12-05T06:48:35;34.33;;;14.48;;
74080;SDS011;62438;52.228;6.864;2022-12-05T06:50:35;36.30;;;15.15;;
74080;SDS011;62438;52.228;6.864;2022-12-05T06:52:35;30.27;;;13.15;;
74080;SDS011;62438;52.228;6.864;2022-12-05T06:54:36;37.42;;;14.98;;
74080;SDS011;62438;52.228;6.864;2022-12-05T06:56:36;37.28;;;15.15;;
74080;SDS011;62438;52.228;6.864;2022-12-05T06:58:37;34.30;;;14.85;;
74080;SDS011;62438;52.228;6.864;2022-12-05T07:00:37;32.53;;;14.65;;
74080;SDS011;62438;52.228;6.864;2022-12-05T07:02:56;32.85;;;12.60;;
74080;SDS011;62438;52.228;6.864;2022-12-05T07:04:57;29.77;;;13.13;;
74080;SDS011;62438;52.228;6.864;2022-12-05T07:06:57;34.67;;;14.73;;
74080;SDS011;62438;52.228;6.864;2022-12-05T07:08:58;32.97;;;12.95;;
74080;SDS011;62438;52.228;6.864;2022-12-05T07:10:59;30.00;;;13.82;;
74080;SDS011;62438;52.228;6.864;2022-12-05T07:12:59;34.42;;;13.88;;
74080;SDS011;62438;52.228;6.864;2022-12-05T07:15:00;27.98;;;12.90;;
74080;SDS011;62438;52.228;6.864;2022-12-05T07:17:00;31.90;;;13.43;;
74080;SDS011;62438;52.228;6.864;2022-12-05T07:19:01;30.92;;;13.65;;
74080;SDS011;62438;52.228;6.864;2022-12-05T07:21:02;31.25;;;13.90;;
74080;SDS011;62438;52.228;6.864;2022-12-05T07:23:04;33.15;;;14.30;;
74080;SDS011;62438;52.228;6.864;2022-12-05T07:25:05;29.67;;;13.32;;
74080;SDS011;62438;52.228;6.864;2022-12-05T07:27:06;33.92;;;14.07;;
74080;SDS011;62438;52.228;6.864;2022-12-05T07:29:07;32.53;;;13.55;;
74080;SDS011;62438;52.228;6.864;2022-12-05T07:31:11;31.42;;;13.52;;
74080;SDS011;62438;52.228;6.864;2022-12-05T07:33:13;31.60;;;12.95;;
74080;SDS011;62438;52.228;6.864;2022-12-05T07:35:13;31.98;;;14.82;;
74080;SDS011;62438;52.228;6.864;2022-12-05T07:37:14;28.38;;;13.95;;
74080;SDS011;62438;52.228;6.864;2022-12-05T07:39:14;34.80;;;14.52;;
74080;SDS011;62438;52.228;6.864;2022-12-05T07:41:25;31.77;;;14.63;;
74080;SDS011;62438;52.228;6.864;2022-12-05T07:43:27;35.75;;;14.15;;
74080;SDS011;62438;52.228;6.864;2022-12-05T07:45:28;33.30;;;13.57;;
74080;SDS011;62438;52.228;6.864;2022-12-05T07:47:29;31.48;;;14.23;;
74080;SDS011;62438;52.228;6.864;2022-12-05T07:49:29;29.48;;;13.93;;
74080;SDS011;62438;52.228;6.864;2022-12-05T07:51:30;34.58;;;13.82;;
74080;SDS011;62438;52.228;6.864;2022-12-05T07:53:31;32.53;;;14.07;;
74080;SDS011;62438;52.228;6.864;2022-12-05T07:55:32;37.60;;;15.40;;
74080;SDS011;62438;52.228;6.864;2022-12-05T07:57:32;36.38;;;14.57;;
74080;SDS011;62438;52.228;6.864;2022-12-05T07:59:33;34.92;;;14.23;;
74080;SDS011;62438;52.228;6.864;2022-12-05T08:01:33;33.88;;;14.98;;
74080;SDS011;62438;52.228;6.864;2022-12-05T08:03:35;33.75;;;14.40;;
74080;SDS011;62438;52.228;6.864;2022-12-05T08:05:36;36.30;;;14.55;;
74080;SDS011;62438;52.228;6.864;2022-12-05T08:07:37;38.22;;;15.55;;
74080;SDS011;62438;52.228;6.864;2022-12-05T08:09:37;38.33;;;15.35;;
74080;SDS011;62438;52.228;6.864;2022-12-05T08:11:38;40.28;;;15.73;;
74080;SDS011;62438;52.228;6.864;2022-12-05T08:13:38;38.38;;;15.65;;
74080;SDS011;62438;52.228;6.864;2022-12-05T08:15:39;41.17;;;15.65;;
74080;SDS011;62438;52.228;6.864;2022-12-05T08:17:40;39.35;;;16.67;;
74080;SDS011;62438;52.228;6.864;2022-12-05T08:19:40;35.00;;;14.32;;
74080;SDS011;62438;52.228;6.864;2022-12-05T08:21:41;42.92;;;16.50;;
74080;SDS011;62438;52.228;6.864;2022-12-05T08:23:41;44.92;;;15.48;;
74080;SDS011;62438;52.228;6.864;2022-12-05T08:25:42;47.88;;;16.90;;
74080;SDS011;62438;52.228;6.864;2022-12-05T08:27:43;52.95;;;17.27;;
74080;SDS011;62438;52.228;6.864;2022-12-05T08:29:43;43.70;;;17.15;;
74080;SDS011;62438;52.228;6.864;2022-12-05T08:31:45;42.28;;;16.60;;
74080;SDS011;62438;52.228;6.864;2022-12-05T08:33:47;52.92;;;17.00;;
74080;SDS011;62438;52.228;6.864;2022-12-05T08:35:48;46.80;;;17.52;;
74080;SDS011;62438;52.228;6.864;2022-12-05T08:37:48;54.13;;;18.73;;
74080;SDS011;62438;52.228;6.864;2022-12-05T08:39:49;54.83;;;18.75;;
74080;SDS011;62438;52.228;6.864;2022-12-05T08:41:49;56.38;;;18.23;;
74080;SDS011;62438;52.228;6.864;2022-12-05T08:43:50;49.35;;;18.63;;
74080;SDS011;62438;52.228;6.864;2022-12-05T08:45:51;61.17;;;20.75;;
74080;SDS011;62438;52.228;6.864;2022-12-05T08:47:52;55.40;;;18.70;;
74080;SDS011;62438;52.228;6.864;2022-12-05T08:49:52;57.92;;;19.80;;
74080;SDS011;62438;52.228;6.864;2022-12-05T08:51:52;53.60;;;18.98;;
74080;SDS011;62438;52.228;6.864;2022-12-05T08:53:53;59.10;;;18.42;;
74080;SDS011;62438;52.228;6.864;2022-12-05T08:55:58;60.42;;;18.45;;
74080;SDS011;62438;52.228;6.864;2022-12-05T08:57:59;53.75;;;18.02;;
74080;SDS011;62438;52.228;6.864;2022-12-05T09:00:00;61.80;;;18.92;;
74080;SDS011;62438;52.228;6.864;2022-12-05T09:02:00;60.75;;;19.63;;
74080;SDS011;62438;52.228;6.864;2022-12-05T09:04:01;58.92;;;19.45;;
74080;SDS011;62438;52.228;6.864;2022-12-05T09:06:17;60.28;;;19.40;;
74080;SDS011;62438;52.228;6.864;2022-12-05T09:08:21;58.67;;;18.30;;
74080;SDS011;62438;52.228;6.864;2022-12-05T09:10:22;52.10;;;19.40;;
74080;SDS011;62438;52.228;6.864;2022-12-05T09:12:22;55.65;;;17.42;;
74080;SDS011;62438;52.228;6.864;2022-12-05T09:14:23;62.47;;;20.35;;
74080;SDS011;62438;52.228;6.864;2022-12-05T09:16:25;56.55;;;19.38;;
74080;SDS011;62438;52.228;6.864;2022-12-05T09:18:30;52.30;;;19.55;;
74080;SDS011;62438;52.228;6.864;2022-12-05T09:20:30;54.97;;;19.38;;
74080;SDS011;62438;52.228;6.864;2022-12-05T09:22:31;54.25;;;17.30;;
74080;SDS011;62438;52.228;6.864;2022-12-05T09:24:32;55.50;;;18.15;;
74080;SDS011;62438;52.228;6.864;2022-12-05T09:26:32;57.45;;;18.85;;
74080;SDS011;62438;52.228;6.864;2022-12-05T09:28:32;52.42;;;18.80;;
74080;SDS011;62438;52.228;6.864;2022-12-05T09:30:33;46.88;;;17.45;;
74080;SDS011;62438;52.228;6.864;2022-12-05T09:32:34;49.70;;;16.85;;
74080;SDS011;62438;52.228;6.864;2022-12-05T09:34:35;50.92;;;19.25;;
74080;SDS011;62438;52.228;6.864;2022-12-05T09:36:38;54.35;;;17.63;;
74080;SDS011;62438;52.228;6.864;2022-12-05T09:38:38;46.72;;;18.05;;
74080;SDS011;62438;52.228;6.864;2022-12-05T09:40:39;47.85;;;17.45;;
74080;SDS011;62438;52.228;6.864;2022-12-05T09:45:20;52.10;;;17.95;;
74080;SDS011;62438;52.228;6.864;2022-12-05T09:49:30;47.08;;;17.25;;
74080;SDS011;62438;52.228;6.864;2022-12-05T09:51:32;53.47;;;18.58;;
74080;SDS011;62438;52.228;6.864;2022-12-05T09:53:36;47.67;;;17.48;;
74080;SDS011;62438;52.228;6.864;2022-12-05T09:58:04;44.30;;;17.60;;
74080;SDS011;62438;52.228;6.864;2022-12-05T10:00:14;44.90;;;17.27;;
74080;SDS011;62438;52.228;6.864;2022-12-05T10:04:48;43.65;;;16.85;;
74080;SDS011;62438;52.228;6.864;2022-12-05T10:07:15;47.22;;;16.73;;
74080;SDS011;62438;52.228;6.864;2022-12-05T10:12:21;46.47;;;17.17;;
74080;SDS011;62438;52.228;6.864;2022-12-05T10:14:49;45.40;;;15.80;;
74080;SDS011;62438;52.228;6.864;2022-12-05T10:17:02;50.30;;;17.85;;
74080;SDS011;62438;52.228;6.864;2022-12-05T10:21:38;44.38;;;16.20;;
74080;SDS011;62438;52.228;6.864;2022-12-05T10:23:57;44.30;;;16.55;;
74080;SDS011;62438;52.228;6.864;2022-12-05T10:26:01;43.60;;;17.70;;
74080;SDS011;62438;52.228;6.864;2022-12-05T10:28:05;43.25;;;15.98;;
74080;SDS011;62438;52.228;6.864;2022-12-05T10:30:17;48.35;;;16.80;;
74080;SDS011;62438;52.228;6.864;2022-12-05T10:32:25;48.05;;;17.30;;
74080;SDS011;62438;52.228;6.864;2022-12-05T10:34:32;45.38;;;16.33;;
74080;SDS011;62438;52.228;6.864;2022-12-05T10:36:37;45.30;;;16.52;;
74080;SDS011;62438;52.228;6.864;2022-12-05T10:38:37;45.08;;;15.88;;
74080;SDS011;62438;52.228;6.864;2022-12-05T10:40:40;43.90;;;17.15;;
74080;SDS011;62438;52.228;6.864;2022-12-05T10:42:44;43.15;;;16.92;;
74080;SDS011;62438;52.228;6.864;2022-12-05T10:44:46;41.50;;;15.07;;
74080;SDS011;62438;52.228;6.864;2022-12-05T10:46:49;47.50;;;17.27;;
74080;SDS011;62438;52.228;6.864;2022-12-05T10:48:50;42.78;;;16.45;;
74080;SDS011;62438;52.228;6.864;2022-12-05T10:50:51;39.90;;;16.20;;
74080;SDS011;62438;52.228;6.864;2022-12-05T10:52:54;44.53;;;16.80;;
74080;SDS011;62438;52.228;6.864;2022-12-05T10:54:58;41.38;;;15.90;;
74080;SDS011;62438;52.228;6.864;2022-12-05T10:57:01;45.40;;;16.50;;
74080;SDS011;62438;52.228;6.864;2022-12-05T10:59:21;44.78;;;16.20;;
74080;SDS011;62438;52.228;6.864;2022-12-05T11:01:23;36.80;;;14.98;;
74080;SDS011;62438;52.228;6.864;2022-12-05T11:05:30;40.15;;;16.17;;
74080;SDS011;62438;52.228;6.864;2022-12-05T11:07:35;44.10;;;16.33;;
74080;SDS011;62438;52.228;6.864;2022-12-05T11:09:37;41.35;;;15.43;;
74080;SDS011;62438;52.228;6.864;2022-12-05T11:11:38;43.03;;;17.08;;
74080;SDS011;62438;52.228;6.864;2022-12-05T11:13:39;42.08;;;15.60;;
74080;SDS011;62438;52.228;6.864;2022-12-05T11:16:14;42.45;;;15.88;;
74080;SDS011;62438;52.228;6.864;2022-12-05T11:18:32;42.92;;;15.23;;
74080;SDS011;62438;52.228;6.864;2022-12-05T11:20:34;41.03;;;16.08;;
74080;SDS011;62438;52.228;6.864;2022-12-05T11:22:36;36.72;;;14.63;;
74080;SDS011;62438;52.228;6.864;2022-12-05T11:24:37;37.08;;;15.25;;
74080;SDS011;62438;52.228;6.864;2022-12-05T11:26:38;38.25;;;15.55;;
74080;SDS011;62438;52.228;6.864;2022-12-05T11:28:38;40.63;;;15.48;;
74080;SDS011;62438;52.228;6.864;2022-12-05T11:30:39;36.55;;;13.93;;
74080;SDS011;62438;52.228;6.864;2022-12-05T11:33:17;38.00;;;14.52;;
74080;SDS011;62438;52.228;6.864;2022-12-05T11:35:24;33.65;;;14.30;;
74080;SDS011;62438;52.228;6.864;2022-12-05T11:37:27;36.15;;;13.63;;
74080;SDS011;62438;52.228;6.864;2022-12-05T11:39:34;33.58;;;13.38;;
74080;SDS011;62438;52.228;6.864;2022-12-05T11:41:44;35.42;;;14.05;;
74080;SDS011;62438;52.228;6.864;2022-12-05T12:05:35;28.35;;;12.00;;
74080;SDS011;62438;52.228;6.864;2022-12-05T12:07:55;27.65;;;11.85;;
74080;SDS011;62438;52.228;6.864;2022-12-05T12:30:03;27.02;;;10.60;;
74080;SDS011;62438;52.228;6.864;2022-12-05T12:46:10;25.63;;;10.80;;
74080;SDS011;62438;52.228;6.864;2022-12-05T12:50:54;20.50;;;8.90;;
74080;SDS011;62438;52.228;6.864;2022-12-05T12:55:13;22.83;;;9.52;;
74080;SDS011;62438;52.228;6.864;2022-12-05T12:57:25;21.23;;;9.73;;
74080;SDS011;62438;52.228;6.864;2022-12-05T13:01:57;21.65;;;9.02;;
74080;SDS011;62438;52.228;6.864;2022-12-05T13:04:27;22.25;;;9.25;;
74080;SDS011;62438;52.228;6.864;2022-12-05T13:06:48;23.25;;;9.90;;
74080;SDS011;62438;52.228;6.864;2022-12-05T13:09:02;19.30;;;8.85;;
74080;SDS011;62438;52.228;6.864;2022-12-05T13:11:07;22.58;;;9.40;;
74080;SDS011;62438;52.228;6.864;2022-12-05T13:13:12;19.00;;;8.50;;
74080;SDS011;62438;52.228;6.864;2022-12-05T13:15:39;19.95;;;8.20;;
74080;SDS011;62438;52.228;6.864;2022-12-05T13:17:40;21.20;;;9.38;;
74080;SDS011;62438;52.228;6.864;2022-12-05T13:19:45;20.33;;;9.00;;
74080;SDS011;62438;52.228;6.864;2022-12-05T13:21:48;24.33;;;11.10;;
74080;SDS011;62438;52.228;6.864;2022-12-05T13:23:50;22.05;;;9.07;;
74080;SDS011;62438;52.228;6.864;2022-12-05T13:25:55;23.88;;;9.32;;
74080;SDS011;62438;52.228;6.864;2022-12-05T13:27:58;24.08;;;10.02;;
74080;SDS011;62438;52.228;6.864;2022-12-05T13:30:03;20.60;;;9.30;;
74080;SDS011;62438;52.228;6.864;2022-12-05T13:32:04;20.90;;;9.98;;
74080;SDS011;62438;52.228;6.864;2022-12-05T13:36:29;20.00;;;9.45;;
74080;SDS011;62438;52.228;6.864;2022-12-05T13:39:02;20.48;;;9.25;;
74080;SDS011;62438;52.228;6.864;2022-12-05T13:41:32;20.88;;;9.63;;
74080;SDS011;62438;52.228;6.864;2022-12-05T13:43:57;21.20;;;8.95;;
74080;SDS011;62438;52.228;6.864;2022-12-05T13:46:05;20.83;;;9.90;;
74080;SDS011;62438;52.228;6.864;2022-12-05T13:48:21;19.52;;;9.98;;
74080;SDS011;62438;52.228;6.864;2022-12-05T13:50:35;20.63;;;8.98;;
74080;SDS011;62438;52.228;6.864;2022-12-05T13:53:04;18.70;;;8.45;;
74080;SDS011;62438;52.228;6.864;2022-12-05T13:55:21;18.73;;;8.00;;
74080;SDS011;62438;52.228;6.864;2022-12-05T14:04:45;22.40;;;8.40;;
74080;SDS011;62438;52.228;6.864;2022-12-05T14:08:50;20.33;;;9.45;;
74080;SDS011;62438;52.228;6.864;2022-12-05T14:12:53;20.60;;;9.18;;
74080;SDS011;62438;52.228;6.864;2022-12-05T14:16:56;26.02;;;11.32;;
74080;SDS011;62438;52.228;6.864;2022-12-05T14:19:23;25.70;;;10.48;;
74080;SDS011;62438;52.228;6.864;2022-12-05T14:21:59;23.98;;;10.13;;
74080;SDS011;62438;52.228;6.864;2022-12-05T14:24:27;25.50;;;10.25;;